sensor_id;sensor_type;location;lat;lon;timestamp;temperature;humidity
25360;DHT22;13311;51.386;0.016;2022-09-09T00:02:01;19.00;99.90
25360;DHT22;13311;51.386;0.016;2022-09-09T00:23:35;18.90;99.90
25360;DHT22;13311;51.386;0.016;2022-09-09T00:39:36;18.90;99.90
25360;DHT22;13311;51.386;0.016;2022-09-09T00:44:39;19.00;99.90
25360;DHT22;13311;51.386;0.016;2022-09-09T00:50:20;18.90;99.90
25360;DHT22;13311;51.386;0.016;2022-09-09T01:01:04;18.90;99.90
25360;DHT22;13311;51.386;0.016;2022-09-09T01:06:27;18.90;99.90
25360;DHT22;13311;51.386;0.016;2022-09-09T01:16:52;19.00;99.90
25360;DHT22;13311;51.386;0.016;2022-09-09T01:22:13;19.00;99.90
25360;DHT22;13311;51.386;0.016;2022-09-09T01:27:23;19.00;99.90
25360;DHT22;13311;51.386;0.016;2022-09-09T01:32:43;19.10;99.90
25360;DHT22;13311;51.386;0.016;2022-09-09T01:37:45;19.10;99.90
25360;DHT22;13311;51.386;0.016;2022-09-09T01:42:46;19.10;99.90
25360;DHT22;13311;51.386;0.016;2022-09-09T01:47:47;19.10;99.90
25360;DHT22;13311;51.386;0.016;2022-09-09T01:52:52;19.10;99.90
25360;DHT22;13311;51.386;0.016;2022-09-09T02:03:28;19.20;99.90
25360;DHT22;13311;51.386;0.016;2022-09-09T02:13:46;19.20;99.90
25360;DHT22;13311;51.386;0.016;2022-09-09T02:18:57;19.30;99.90
25360;DHT22;13311;51.386;0.016;2022-09-09T02:24:05;19.30;99.90
25360;DHT22;13311;51.386;0.016;2022-09-09T02:29:14;19.30;99.90
25360;DHT22;13311;51.386;0.016;2022-09-09T02:34:20;19.40;99.80
25360;DHT22;13311;51.386;0.016;2022-09-09T02:39:22;19.30;99.90
25360;DHT22;13311;51.386;0.016;2022-09-09T02:44:23;19.30;99.90
25360;DHT22;13311;51.386;0.016;2022-09-09T02:55:10;19.30;99.90
25360;DHT22;13311;51.386;0.016;2022-09-09T03:00:16;19.50;99.70
25360;DHT22;13311;51.386;0.016;2022-09-09T03:05:24;19.50;99.50
25360;DHT22;13311;51.386;0.016;2022-09-09T03:10:26;19.40;99.60
25360;DHT22;13311;51.386;0.016;2022-09-09T03:15:27;19.50;99.20
25360;DHT22;13311;51.386;0.016;2022-09-09T03:20:30;19.60;99.10
25360;DHT22;13311;51.386;0.016;2022-09-09T03:25:31;19.50;99.20
25360;DHT22;13311;51.386;0.016;2022-09-09T03:30:33;19.50;99.30
25360;DHT22;13311;51.386;0.016;2022-09-09T03:35:34;19.60;98.70
25360;DHT22;13311;51.386;0.016;2022-09-09T03:40:35;19.50;99.10
25360;DHT22;13311;51.386;0.016;2022-09-09T03:45:36;19.40;99.50
25360;DHT22;13311;51.386;0.016;2022-09-09T03:50:36;19.40;99.50
25360;DHT22;13311;51.386;0.016;2022-09-09T03:55:37;19.40;99.60
25360;DHT22;13311;51.386;0.016;2022-09-09T04:00:38;19.40;99.50
25360;DHT22;13311;51.386;0.016;2022-09-09T04:05:42;19.40;99.60
25360;DHT22;13311;51.386;0.016;2022-09-09T04:10:45;19.40;99.50
25360;DHT22;13311;51.386;0.016;2022-09-09T04:15:55;19.30;99.80
25360;DHT22;13311;51.386;0.016;2022-09-09T04:20:57;19.30;99.80
25360;DHT22;13311;51.386;0.016;2022-09-09T04:25:59;19.30;99.70
25360;DHT22;13311;51.386;0.016;2022-09-09T04:31:09;19.30;99.90
25360;DHT22;13311;51.386;0.016;2022-09-09T04:36:13;19.30;99.90
25360;DHT22;13311;51.386;0.016;2022-09-09T04:41:15;19.30;99.90
25360;DHT22;13311;51.386;0.016;2022-09-09T04:46:16;19.30;99.90
25360;DHT22;13311;51.386;0.016;2022-09-09T04:51:17;19.40;99.70
25360;DHT22;13311;51.386;0.016;2022-09-09T04:56:18;19.50;99.30
25360;DHT22;13311;51.386;0.016;2022-09-09T05:01:21;19.60;99.10
25360;DHT22;13311;51.386;0.016;2022-09-09T05:06:22;19.60;98.70
25360;DHT22;13311;51.386;0.016;2022-09-09T05:11:25;19.50;99.10
25360;DHT22;13311;51.386;0.016;2022-09-09T05:16:27;19.60;99.00
25360;DHT22;13311;51.386;0.016;2022-09-09T05:21:28;19.50;99.20
25360;DHT22;13311;51.386;0.016;2022-09-09T05:26:31;19.40;99.50
25360;DHT22;13311;51.386;0.016;2022-09-09T05:31:32;19.40;99.60
25360;DHT22;13311;51.386;0.016;2022-09-09T05:36:33;19.40;99.50
25360;DHT22;13311;51.386;0.016;2022-09-09T05:41:34;19.40;99.70
25360;DHT22;13311;51.386;0.016;2022-09-09T05:46:35;19.40;99.60
25360;DHT22;13311;51.386;0.016;2022-09-09T05:51:36;19.40;99.30
25360;DHT22;13311;51.386;0.016;2022-09-09T05:56:37;19.50;99.00
25360;DHT22;13311;51.386;0.016;2022-09-09T06:01:38;19.50;99.20
25360;DHT22;13311;51.386;0.016;2022-09-09T06:06:40;19.60;98.70
25360;DHT22;13311;51.386;0.016;2022-09-09T06:11:42;19.50;98.60
25360;DHT22;13311;51.386;0.016;2022-09-09T06:16:43;19.50;98.90
25360;DHT22;13311;51.386;0.016;2022-09-09T06:21:44;19.60;99.00
25360;DHT22;13311;51.386;0.016;2022-09-09T06:26:45;19.50;99.20
25360;DHT22;13311;51.386;0.016;2022-09-09T06:31:45;19.60;99.30
25360;DHT22;13311;51.386;0.016;2022-09-09T06:36:47;19.60;98.70
25360;DHT22;13311;51.386;0.016;2022-09-09T06:41:48;19.70;98.20
25360;DHT22;13311;51.386;0.016;2022-09-09T06:46:50;19.80;98.00
25360;DHT22;13311;51.386;0.016;2022-09-09T06:51:50;19.80;98.00
25360;DHT22;13311;51.386;0.016;2022-09-09T06:56:52;19.90;97.70
25360;DHT22;13311;51.386;0.016;2022-09-09T07:01:53;19.90;97.50
25360;DHT22;13311;51.386;0.016;2022-09-09T07:06:54;20.00;97.20
25360;DHT22;13311;51.386;0.016;2022-09-09T07:11:55;20.10;96.60
25360;DHT22;13311;51.386;0.016;2022-09-09T07:16:59;20.20;97.00
25360;DHT22;13311;51.386;0.016;2022-09-09T07:22:00;20.40;97.00
25360;DHT22;13311;51.386;0.016;2022-09-09T07:27:02;20.60;96.80
25360;DHT22;13311;51.386;0.016;2022-09-09T07:32:03;20.70;96.30
25360;DHT22;13311;51.386;0.016;2022-09-09T07:37:04;20.70;96.40
25360;DHT22;13311;51.386;0.016;2022-09-09T07:42:05;20.80;95.80
25360;DHT22;13311;51.386;0.016;2022-09-09T07:47:07;20.90;95.30
25360;DHT22;13311;51.386;0.016;2022-09-09T07:52:07;20.90;95.50
25360;DHT22;13311;51.386;0.016;2022-09-09T07:57:08;20.90;95.30
25360;DHT22;13311;51.386;0.016;2022-09-09T08:02:09;20.90;95.00
25360;DHT22;13311;51.386;0.016;2022-09-09T08:07:10;20.80;95.20
25360;DHT22;13311;51.386;0.016;2022-09-09T08:12:11;20.70;95.60
25360;DHT22;13311;51.386;0.016;2022-09-09T08:17:13;20.60;96.00
25360;DHT22;13311;51.386;0.016;2022-09-09T08:22:14;20.60;96.60
25360;DHT22;13311;51.386;0.016;2022-09-09T08:27:14;20.50;96.80
25360;DHT22;13311;51.386;0.016;2022-09-09T08:32:15;20.70;96.50
25360;DHT22;13311;51.386;0.016;2022-09-09T08:37:16;20.80;95.90
25360;DHT22;13311;51.386;0.016;2022-09-09T08:42:28;20.90;96.50
25360;DHT22;13311;51.386;0.016;2022-09-09T08:58:33;21.60;94.40
25360;DHT22;13311;51.386;0.016;2022-09-09T09:03:40;21.50;94.60
25360;DHT22;13311;51.386;0.016;2022-09-09T09:19:18;21.20;94.50
25360;DHT22;13311;51.386;0.016;2022-09-09T09:24:23;21.10;94.50
25360;DHT22;13311;51.386;0.016;2022-09-09T09:29:32;21.00;94.70
25360;DHT22;13311;51.386;0.016;2022-09-09T09:34:35;20.90;94.90
25360;DHT22;13311;51.386;0.016;2022-09-09T09:39:36;20.70;95.40
25360;DHT22;13311;51.386;0.016;2022-09-09T09:44:38;20.60;95.80
25360;DHT22;13311;51.386;0.016;2022-09-09T09:49:39;20.60;96.10
25360;DHT22;13311;51.386;0.016;2022-09-09T09:54:57;20.70;96.00
25360;DHT22;13311;51.386;0.016;2022-09-09T10:00:19;20.90;95.90
25360;DHT22;13311;51.386;0.016;2022-09-09T10:05:23;20.90;95.30
25360;DHT22;13311;51.386;0.016;2022-09-09T10:10:44;20.90;95.50
25360;DHT22;13311;51.386;0.016;2022-09-09T10:21:42;21.00;95.70
25360;DHT22;13311;51.386;0.016;2022-09-09T10:27:25;21.00;95.30
25360;DHT22;13311;51.386;0.016;2022-09-09T10:54:56;21.60;95.50
25360;DHT22;13311;51.386;0.016;2022-09-09T11:00:14;21.90;94.00
25360;DHT22;13311;51.386;0.016;2022-09-09T11:21:41;22.30;93.10
25360;DHT22;13311;51.386;0.016;2022-09-09T11:26:58;22.30;92.80
25360;DHT22;13311;51.386;0.016;2022-09-09T11:32:33;22.30;92.90
25360;DHT22;13311;51.386;0.016;2022-09-09T11:38:08;22.30;92.90
25360;DHT22;13311;51.386;0.016;2022-09-09T11:43:16;22.30;92.70
25360;DHT22;13311;51.386;0.016;2022-09-09T11:48:42;22.30;92.70
25360;DHT22;13311;51.386;0.016;2022-09-09T11:54:26;22.20;92.70
25360;DHT22;13311;51.386;0.016;2022-09-09T11:59:31;22.30;92.50
25360;DHT22;13311;51.386;0.016;2022-09-09T12:04:37;22.30;92.80
25360;DHT22;13311;51.386;0.016;2022-09-09T12:09:50;22.30;92.50
25360;DHT22;13311;51.386;0.016;2022-09-09T12:14:58;22.40;92.30
25360;DHT22;13311;51.386;0.016;2022-09-09T12:20:26;22.50;92.20
25360;DHT22;13311;51.386;0.016;2022-09-09T12:25:52;22.40;92.20
25360;DHT22;13311;51.386;0.016;2022-09-09T12:31:18;22.50;92.00
25360;DHT22;13311;51.386;0.016;2022-09-09T12:36:29;22.80;92.00
25360;DHT22;13311;51.386;0.016;2022-09-09T12:41:31;22.90;91.80
25360;DHT22;13311;51.386;0.016;2022-09-09T12:46:36;23.10;91.50
25360;DHT22;13311;51.386;0.016;2022-09-09T12:51:43;23.40;91.00
25360;DHT22;13311;51.386;0.016;2022-09-09T12:56:46;23.60;90.90
25360;DHT22;13311;51.386;0.016;2022-09-09T13:01:55;23.70;90.00
25360;DHT22;13311;51.386;0.016;2022-09-09T13:07:06;23.70;89.20
25360;DHT22;13311;51.386;0.016;2022-09-09T13:12:21;23.70;89.40
25360;DHT22;13311;51.386;0.016;2022-09-09T13:17:24;23.80;90.00
25360;DHT22;13311;51.386;0.016;2022-09-09T13:22:33;23.80;89.00
25360;DHT22;13311;51.386;0.016;2022-09-09T13:27:40;23.80;89.50
25360;DHT22;13311;51.386;0.016;2022-09-09T13:32:42;23.70;89.00
25360;DHT22;13311;51.386;0.016;2022-09-09T13:37:44;23.90;89.80
25360;DHT22;13311;51.386;0.016;2022-09-09T13:42:45;24.10;88.80
25360;DHT22;13311;51.386;0.016;2022-09-09T13:47:46;24.30;88.50
25360;DHT22;13311;51.386;0.016;2022-09-09T13:52:54;24.50;88.10
25360;DHT22;13311;51.386;0.016;2022-09-09T13:58:02;24.50;87.40
25360;DHT22;13311;51.386;0.016;2022-09-09T14:03:05;24.50;85.50
25360;DHT22;13311;51.386;0.016;2022-09-09T14:08:21;24.50;86.20
25360;DHT22;13311;51.386;0.016;2022-09-09T14:13:24;24.60;85.60
25360;DHT22;13311;51.386;0.016;2022-09-09T14:18:24;24.50;85.60
25360;DHT22;13311;51.386;0.016;2022-09-09T14:23:25;24.50;86.60
25360;DHT22;13311;51.386;0.016;2022-09-09T14:28:26;24.40;86.00
25360;DHT22;13311;51.386;0.016;2022-09-09T14:33:28;24.40;86.40
25360;DHT22;13311;51.386;0.016;2022-09-09T14:38:31;24.20;85.30
25360;DHT22;13311;51.386;0.016;2022-09-09T14:43:34;24.10;85.80
25360;DHT22;13311;51.386;0.016;2022-09-09T14:48:35;24.10;85.00
25360;DHT22;13311;51.386;0.016;2022-09-09T14:53:36;24.10;85.30
25360;DHT22;13311;51.386;0.016;2022-09-09T14:58:37;23.90;85.20
25360;DHT22;13311;51.386;0.016;2022-09-09T15:03:39;23.90;86.30
25360;DHT22;13311;51.386;0.016;2022-09-09T15:08:44;23.90;86.00
25360;DHT22;13311;51.386;0.016;2022-09-09T15:13:46;23.80;86.30
25360;DHT22;13311;51.386;0.016;2022-09-09T15:18:51;23.80;87.00
25360;DHT22;13311;51.386;0.016;2022-09-09T15:23:54;23.70;87.00
25360;DHT22;13311;51.386;0.016;2022-09-09T15:28:56;23.70;86.30
25360;DHT22;13311;51.386;0.016;2022-09-09T15:34:05;23.70;86.60
25360;DHT22;13311;51.386;0.016;2022-09-09T15:39:14;23.60;87.00
25360;DHT22;13311;51.386;0.016;2022-09-09T15:44:16;23.50;86.40
25360;DHT22;13311;51.386;0.016;2022-09-09T15:49:19;23.40;87.30
25360;DHT22;13311;51.386;0.016;2022-09-09T15:54:27;23.40;89.00
25360;DHT22;13311;51.386;0.016;2022-09-09T15:59:33;23.40;89.20
25360;DHT22;13311;51.386;0.016;2022-09-09T16:04:34;23.30;87.20
25360;DHT22;13311;51.386;0.016;2022-09-09T16:09:36;23.30;87.00
25360;DHT22;13311;51.386;0.016;2022-09-09T16:14:37;23.20;90.00
25360;DHT22;13311;51.386;0.016;2022-09-09T16:19:39;23.10;91.30
25360;DHT22;13311;51.386;0.016;2022-09-09T16:24:39;22.60;92.10
25360;DHT22;13311;51.386;0.016;2022-09-09T16:29:40;22.10;93.00
25360;DHT22;13311;51.386;0.016;2022-09-09T16:34:41;21.80;94.40
25360;DHT22;13311;51.386;0.016;2022-09-09T16:39:43;21.60;95.60
25360;DHT22;13311;51.386;0.016;2022-09-09T16:44:43;21.50;96.50
25360;DHT22;13311;51.386;0.016;2022-09-09T16:49:44;21.40;96.40
25360;DHT22;13311;51.386;0.016;2022-09-09T16:54:45;21.40;97.00
25360;DHT22;13311;51.386;0.016;2022-09-09T16:59:46;21.40;97.30
25360;DHT22;13311;51.386;0.016;2022-09-09T17:04:46;21.40;97.50
25360;DHT22;13311;51.386;0.016;2022-09-09T17:09:47;21.50;97.70
25360;DHT22;13311;51.386;0.016;2022-09-09T17:14:49;21.70;97.40
25360;DHT22;13311;51.386;0.016;2022-09-09T17:19:51;21.80;97.40
25360;DHT22;13311;51.386;0.016;2022-09-09T17:24:51;21.90;97.20
25360;DHT22;13311;51.386;0.016;2022-09-09T17:29:52;22.00;97.30
25360;DHT22;13311;51.386;0.016;2022-09-09T17:34:53;22.00;97.20
25360;DHT22;13311;51.386;0.016;2022-09-09T17:39:53;22.00;97.30
25360;DHT22;13311;51.386;0.016;2022-09-09T17:44:54;22.00;96.80
25360;DHT22;13311;51.386;0.016;2022-09-09T17:49:55;22.00;96.80
25360;DHT22;13311;51.386;0.016;2022-09-09T17:54:55;21.90;96.80
25360;DHT22;13311;51.386;0.016;2022-09-09T17:59:57;21.80;96.80
25360;DHT22;13311;51.386;0.016;2022-09-09T18:04:57;21.70;96.90
25360;DHT22;13311;51.386;0.016;2022-09-09T18:09:58;21.60;96.90
25360;DHT22;13311;51.386;0.016;2022-09-09T18:14:59;21.60;97.00
25360;DHT22;13311;51.386;0.016;2022-09-09T18:20:00;21.50;97.30
25360;DHT22;13311;51.386;0.016;2022-09-09T18:25:00;21.40;97.20
25360;DHT22;13311;51.386;0.016;2022-09-09T18:30:01;21.40;97.30
25360;DHT22;13311;51.386;0.016;2022-09-09T18:35:03;21.30;97.40
25360;DHT22;13311;51.386;0.016;2022-09-09T18:40:04;21.20;97.50
25360;DHT22;13311;51.386;0.016;2022-09-09T18:45:05;21.10;97.50
25360;DHT22;13311;51.386;0.016;2022-09-09T18:50:07;21.00;97.60
25360;DHT22;13311;51.386;0.016;2022-09-09T18:55:08;21.00;97.80
25360;DHT22;13311;51.386;0.016;2022-09-09T19:00:09;20.90;97.90
25360;DHT22;13311;51.386;0.016;2022-09-09T19:05:10;20.80;97.80
25360;DHT22;13311;51.386;0.016;2022-09-09T19:10:11;20.80;97.50
25360;DHT22;13311;51.386;0.016;2022-09-09T19:15:12;20.80;97.40
25360;DHT22;13311;51.386;0.016;2022-09-09T19:20:13;20.70;97.50
25360;DHT22;13311;51.386;0.016;2022-09-09T19:25:15;20.60;97.30
25360;DHT22;13311;51.386;0.016;2022-09-09T19:30:16;20.50;97.30
25360;DHT22;13311;51.386;0.016;2022-09-09T19:35:17;20.40;98.00
25360;DHT22;13311;51.386;0.016;2022-09-09T19:40:19;20.40;98.00
25360;DHT22;13311;51.386;0.016;2022-09-09T19:45:22;20.40;98.20
25360;DHT22;13311;51.386;0.016;2022-09-09T19:50:23;20.30;98.20
25360;DHT22;13311;51.386;0.016;2022-09-09T19:55:23;20.30;98.00
25360;DHT22;13311;51.386;0.016;2022-09-09T20:00:24;20.30;98.10
25360;DHT22;13311;51.386;0.016;2022-09-09T20:05:25;20.30;98.20
25360;DHT22;13311;51.386;0.016;2022-09-09T20:10:26;20.30;98.20
25360;DHT22;13311;51.386;0.016;2022-09-09T20:15:26;20.30;98.10
25360;DHT22;13311;51.386;0.016;2022-09-09T20:20:27;20.30;98.00
25360;DHT22;13311;51.386;0.016;2022-09-09T20:25:28;20.30;97.80
25360;DHT22;13311;51.386;0.016;2022-09-09T20:30:29;20.30;97.70
25360;DHT22;13311;51.386;0.016;2022-09-09T20:35:30;20.20;97.50
25360;DHT22;13311;51.386;0.016;2022-09-09T20:40:36;20.20;97.40
25360;DHT22;13311;51.386;0.016;2022-09-09T20:45:37;20.10;97.20
25360;DHT22;13311;51.386;0.016;2022-09-09T20:50:38;20.00;97.20
25360;DHT22;13311;51.386;0.016;2022-09-09T20:55:39;20.00;97.40
25360;DHT22;13311;51.386;0.016;2022-09-09T21:00:40;19.90;97.40
25360;DHT22;13311;51.386;0.016;2022-09-09T21:05:41;19.80;97.60
25360;DHT22;13311;51.386;0.016;2022-09-09T21:10:44;19.80;97.90
25360;DHT22;13311;51.386;0.016;2022-09-09T21:15:47;19.70;98.20
25360;DHT22;13311;51.386;0.016;2022-09-09T21:20:48;19.70;98.00
25360;DHT22;13311;51.386;0.016;2022-09-09T21:25:50;19.60;98.10
25360;DHT22;13311;51.386;0.016;2022-09-09T21:30:53;19.60;98.30
25360;DHT22;13311;51.386;0.016;2022-09-09T21:36:02;19.60;98.30
25360;DHT22;13311;51.386;0.016;2022-09-09T21:41:06;19.60;98.20
25360;DHT22;13311;51.386;0.016;2022-09-09T21:46:14;19.50;98.40
25360;DHT22;13311;51.386;0.016;2022-09-09T21:51:16;19.50;98.40
25360;DHT22;13311;51.386;0.016;2022-09-09T21:56:18;19.40;98.60
25360;DHT22;13311;51.386;0.016;2022-09-09T22:01:18;19.30;98.80
25360;DHT22;13311;51.386;0.016;2022-09-09T22:06:20;19.30;98.60
25360;DHT22;13311;51.386;0.016;2022-09-09T22:11:21;19.20;98.60
25360;DHT22;13311;51.386;0.016;2022-09-09T22:16:22;19.20;98.50
25360;DHT22;13311;51.386;0.016;2022-09-09T22:21:25;19.20;98.70
25360;DHT22;13311;51.386;0.016;2022-09-09T22:26:29;19.20;98.70
25360;DHT22;13311;51.386;0.016;2022-09-09T22:31:32;19.10;98.60
25360;DHT22;13311;51.386;0.016;2022-09-09T22:36:33;19.10;98.60
25360;DHT22;13311;51.386;0.016;2022-09-09T22:41:34;19.10;98.50
25360;DHT22;13311;51.386;0.016;2022-09-09T22:46:36;19.10;98.70
25360;DHT22;13311;51.386;0.016;2022-09-09T22:51:37;19.10;98.70
25360;DHT22;13311;51.386;0.016;2022-09-09T22:56:50;19.00;98.90
25360;DHT22;13311;51.386;0.016;2022-09-09T23:01:51;19.00;98.90
25360;DHT22;13311;51.386;0.016;2022-09-09T23:06:52;19.10;98.80
25360;DHT22;13311;51.386;0.016;2022-09-09T23:11:53;19.00;98.70
25360;DHT22;13311;51.386;0.016;2022-09-09T23:16:55;19.10;98.70
25360;DHT22;13311;51.386;0.016;2022-09-09T23:21:56;19.10;98.60
25360;DHT22;13311;51.386;0.016;2022-09-09T23:26:57;19.00;98.60
25360;DHT22;13311;51.386;0.016;2022-09-09T23:31:58;18.90;98.70
25360;DHT22;13311;51.386;0.016;2022-09-09T23:36:59;18.90;98.70
25360;DHT22;13311;51.386;0.016;2022-09-09T23:42:00;18.90;98.70
25360;DHT22;13311;51.386;0.016;2022-09-09T23:47:01;18.80;98.70
25360;DHT22;13311;51.386;0.016;2022-09-09T23:52:02;18.70;98.70
25360;DHT22;13311;51.386;0.016;2022-09-09T23:57:04;18.70;98.80
